createdAt,value
2018-01-26T00:02:05.704Z,5.57
2018-01-26T00:04:33.322Z,6.07
2018-01-26T00:07:00.942Z,5.83
2018-01-26T00:09:28.543Z,6.00
2018-01-26T00:11:56.150Z,4.87
2018-01-26T00:14:23.741Z,5.27
2018-01-26T00:16:51.603Z,5.90
2018-01-26T00:19:19.195Z,5.40
2018-01-26T00:21:46.789Z,5.70
2018-01-26T00:24:14.427Z,5.57
2018-01-26T00:26:42.014Z,5.47
2018-01-26T00:29:09.615Z,4.60
2018-01-26T00:31:37.212Z,5.30
2018-01-26T00:34:05.143Z,4.50
2018-01-26T00:36:32.732Z,4.80
2018-01-26T00:39:00.475Z,5.90
2018-01-26T00:41:28.096Z,5.30
2018-01-26T00:43:55.683Z,5.43
2018-01-26T00:46:23.300Z,4.97
2018-01-26T00:48:50.892Z,4.90
2018-01-26T00:51:18.541Z,4.90
2018-01-26T00:53:46.141Z,4.87
2018-01-26T00:56:13.729Z,4.67
2018-01-26T00:58:41.343Z,5.80
2018-01-26T01:01:08.932Z,4.70
2018-01-26T01:03:36.531Z,5.20
2018-01-26T01:06:04.119Z,5.70
2018-01-26T01:08:32.095Z,5.03
2018-01-26T01:10:59.695Z,5.63
2018-01-26T01:13:27.275Z,5.20
2018-01-26T01:15:54.891Z,4.33
2018-01-26T01:18:22.485Z,4.77
2018-01-26T01:20:50.093Z,4.70
2018-01-26T01:23:17.691Z,4.40
2018-01-26T01:25:45.512Z,4.90
2018-01-26T01:28:13.093Z,5.27
2018-01-26T01:30:40.684Z,5.30
2018-01-26T01:33:08.289Z,4.33
2018-01-26T01:35:35.876Z,5.00
2018-01-26T01:38:03.500Z,4.93
2018-01-26T01:40:31.092Z,4.50
2018-01-26T01:42:58.716Z,5.20
2018-01-26T01:45:26.301Z,5.03
2018-01-26T01:47:53.939Z,5.13
2018-01-26T01:50:21.533Z,4.77
2018-01-26T01:52:49.123Z,5.30
2018-01-26T01:55:16.734Z,5.30
2018-01-26T01:57:45.306Z,5.57
2018-01-26T02:00:13.304Z,5.40
2018-01-26T02:02:40.890Z,5.23
2018-01-26T02:05:08.488Z,4.97
2018-01-26T02:07:36.102Z,4.77
2018-01-26T02:10:03.698Z,5.90
2018-01-26T02:12:31.515Z,5.70
2018-01-26T02:14:59.104Z,4.67
2018-01-26T02:17:26.696Z,4.50
2018-01-26T02:19:54.342Z,5.33
2018-01-26T02:22:21.936Z,5.33
2018-01-26T02:24:49.552Z,4.70
2018-01-26T02:27:17.151Z,4.47
2018-01-26T02:29:44.946Z,4.90
2018-01-26T02:32:12.589Z,4.97
2018-01-26T02:34:40.292Z,4.27
2018-01-26T02:37:07.915Z,4.57
2018-01-26T02:39:35.504Z,3.90
2018-01-26T02:42:03.127Z,5.73
2018-01-26T02:44:30.743Z,4.73
2018-01-26T02:46:58.578Z,4.77
2018-01-26T02:49:26.163Z,5.23
2018-01-26T02:51:53.752Z,5.20
2018-01-26T02:54:22.450Z,5.43
2018-01-26T02:56:50.034Z,4.23
2018-01-26T02:59:17.650Z,5.43
2018-01-26T03:01:45.237Z,4.90
2018-01-26T03:04:12.827Z,4.77
2018-01-26T03:06:40.462Z,5.43
2018-01-26T03:09:08.060Z,5.30
2018-01-26T03:11:36.027Z,5.10
2018-01-26T03:14:03.615Z,4.57
2018-01-26T03:16:31.215Z,4.80
2018-01-26T03:18:58.831Z,6.27
2018-01-26T03:21:26.416Z,4.77
2018-01-26T03:23:54.023Z,4.10
2018-01-26T03:26:21.629Z,4.60
2018-01-26T03:28:49.553Z,4.53
2018-01-26T03:31:17.219Z,4.80
2018-01-26T03:33:44.803Z,5.07
2018-01-26T03:36:12.402Z,5.03
2018-01-26T03:38:40.002Z,4.63
2018-01-26T03:41:07.620Z,5.73
2018-01-26T03:43:35.202Z,4.50
2018-01-26T03:46:02.987Z,4.43
2018-01-26T03:48:30.586Z,4.00
2018-01-26T03:50:58.177Z,5.93
2018-01-26T03:53:25.809Z,5.27
2018-01-26T03:55:53.425Z,5.87
2018-01-26T03:58:21.048Z,4.50
2018-01-26T04:00:48.641Z,6.03
2018-01-26T04:03:16.578Z,4.77
2018-01-26T04:05:44.163Z,5.07
2018-01-26T04:08:11.748Z,4.80
2018-01-26T04:10:39.364Z,5.30
2018-01-26T04:13:06.977Z,5.30
2018-01-26T04:15:34.601Z,5.43
2018-01-26T04:18:02.201Z,5.23
2018-01-26T04:20:29.960Z,5.00
2018-01-26T04:22:57.556Z,5.27
2018-01-26T04:25:25.144Z,7.20
2018-01-26T04:27:52.763Z,6.30
2018-01-26T04:30:20.356Z,5.73
2018-01-26T04:32:47.962Z,5.90
2018-01-26T04:35:15.556Z,5.63
2018-01-26T04:37:43.574Z,6.00
2018-01-26T04:40:11.175Z,5.83
2018-01-26T04:42:38.764Z,6.50
2018-01-26T04:45:06.380Z,5.83
2018-01-26T04:47:33.966Z,6.53
2018-01-26T04:50:02.544Z,5.80
2018-01-26T04:52:30.140Z,6.40
2018-01-26T04:54:57.778Z,6.40
2018-01-26T04:57:25.367Z,5.77
2018-01-26T04:59:52.958Z,6.13
2018-01-26T05:02:20.587Z,6.23
2018-01-26T05:04:48.186Z,6.03
2018-01-26T05:07:15.933Z,7.73
2018-01-26T05:09:43.549Z,6.60
2018-01-26T05:12:11.353Z,6.80
2018-01-26T05:14:38.944Z,6.60
2018-01-26T05:17:06.530Z,7.30
2018-01-26T05:19:34.142Z,6.03
2018-01-26T05:22:01.735Z,6.00
2018-01-26T05:24:29.349Z,6.50
2018-01-26T05:26:56.946Z,6.97
2018-01-26T05:29:24.870Z,5.53
2018-01-26T05:31:52.522Z,6.90
2018-01-26T05:34:20.126Z,6.70
2018-01-26T05:36:47.738Z,6.23
2018-01-26T05:39:15.321Z,5.90
2018-01-26T05:41:42.976Z,5.80
2018-01-26T05:44:10.603Z,5.70
2018-01-26T05:46:38.423Z,6.17
2018-01-26T05:49:06.019Z,5.80
2018-01-26T05:51:33.614Z,6.73
2018-01-26T05:54:01.226Z,6.30
2018-01-26T05:56:28.807Z,6.50
2018-01-26T05:58:56.411Z,6.07
2018-01-26T06:01:24.020Z,6.20
2018-01-26T06:03:51.678Z,6.43
2018-01-26T06:06:19.273Z,7.27
2018-01-26T06:08:46.869Z,6.27
2018-01-26T06:11:14.488Z,6.10
2018-01-26T06:13:42.092Z,7.07
2018-01-26T06:16:09.704Z,6.83
2018-01-26T06:18:37.315Z,7.50
2018-01-26T06:21:04.947Z,8.13
2018-01-26T06:23:32.532Z,7.20
2018-01-26T06:26:00.132Z,7.87
2018-01-26T06:28:27.743Z,6.43
2018-01-26T06:30:55.329Z,6.77
2018-01-26T06:33:23.079Z,7.73
2018-01-26T06:35:50.672Z,6.73
2018-01-26T06:38:18.282Z,8.07
2018-01-26T06:40:45.907Z,6.63
2018-01-26T06:43:13.816Z,6.77
2018-01-26T06:45:41.406Z,8.20
2018-01-26T06:48:09.011Z,7.10
2018-01-26T06:50:36.664Z,6.73
2018-01-26T06:53:04.258Z,6.77
2018-01-26T06:55:31.870Z,8.80
2018-01-26T06:57:59.462Z,6.50
2018-01-26T07:00:27.119Z,7.83
2018-01-26T07:02:54.702Z,6.17
2018-01-26T07:05:22.305Z,6.10
2018-01-26T07:07:49.908Z,6.43
2018-01-26T07:10:17.555Z,6.87
2018-01-26T07:12:45.184Z,8.40
2018-01-26T07:15:12.776Z,8.33
2018-01-26T07:17:40.412Z,7.57
2018-01-26T07:20:07.995Z,6.87
2018-01-26T07:22:35.602Z,6.40
2018-01-26T07:25:03.224Z,7.47
2018-01-26T07:27:30.852Z,7.33
2018-01-26T07:29:58.460Z,6.57
2018-01-26T07:32:26.048Z,6.70
2018-01-26T07:34:53.763Z,7.03
2018-01-26T07:37:21.353Z,6.63
2018-01-26T07:39:48.963Z,6.37
2018-01-26T07:42:16.576Z,6.67
2018-01-26T07:44:44.174Z,6.40
2018-01-26T07:47:11.783Z,6.47
2018-01-26T07:49:39.401Z,6.83
2018-01-26T07:52:07.027Z,6.47
2018-01-26T07:54:34.652Z,6.10
2018-01-26T07:57:02.245Z,7.80
2018-01-26T07:59:29.882Z,7.20
2018-01-26T08:01:57.468Z,8.83
2018-01-26T08:04:25.103Z,7.47
2018-01-26T08:06:52.731Z,6.50
2018-01-26T08:09:20.368Z,6.20
2018-01-26T08:11:48.011Z,7.37
2018-01-26T08:14:15.603Z,6.93
2018-01-26T08:16:43.240Z,6.60
2018-01-26T08:19:10.839Z,6.93
2018-01-26T08:21:38.458Z,6.73
2018-01-26T08:24:06.096Z,6.23
2018-01-26T08:26:33.965Z,7.43
2018-01-26T08:29:01.599Z,7.20
2018-01-26T08:31:29.195Z,5.97
2018-01-26T08:33:57.393Z,5.63
2018-01-26T08:36:25.043Z,6.57
2018-01-26T08:38:52.655Z,7.57
2018-01-26T08:41:20.452Z,7.23
2018-01-26T08:43:48.094Z,7.30
2018-01-26T08:46:15.684Z,7.47
2018-01-26T08:48:43.333Z,7.20
2018-01-26T08:51:10.948Z,8.00
2018-01-26T08:53:38.906Z,6.33
2018-01-26T08:56:06.559Z,7.20
2018-01-26T08:58:34.231Z,7.47
2018-01-26T09:01:02.122Z,6.77
2018-01-26T09:03:29.707Z,8.00
2018-01-26T09:05:57.310Z,7.67
2018-01-26T09:08:24.991Z,8.30
2018-01-26T09:10:52.584Z,7.20
2018-01-26T09:13:20.224Z,7.20
2018-01-26T09:15:47.828Z,9.17
2018-01-26T09:18:15.415Z,7.67
2018-01-26T09:20:43.023Z,9.40
2018-01-26T09:23:10.615Z,7.83
2018-01-26T09:25:38.255Z,8.30
2018-01-26T09:28:05.850Z,7.60
2018-01-26T09:30:33.440Z,7.57
2018-01-26T09:33:01.043Z,8.13
2018-01-26T09:35:28.662Z,7.53
2018-01-26T09:37:56.319Z,8.33
2018-01-26T09:40:23.907Z,8.13
2018-01-26T09:42:51.528Z,7.97
2018-01-26T09:45:19.153Z,7.27
2018-01-26T09:47:46.747Z,10.30
2018-01-26T09:50:14.701Z,7.87
2018-01-26T09:52:42.294Z,10.20
2018-01-26T09:55:09.885Z,8.30
2018-01-26T09:57:36.793Z,7.37
2018-01-26T10:00:04.385Z,8.50
2018-01-26T10:02:32.016Z,7.83
2018-01-26T10:04:59.618Z,8.60
2018-01-26T10:07:27.285Z,8.90
2018-01-26T10:09:55.167Z,7.87
2018-01-26T10:12:22.782Z,7.87
2018-01-26T10:14:50.424Z,8.30
2018-01-26T10:17:18.108Z,8.20
2018-01-26T10:19:45.724Z,7.27
2018-01-26T10:22:13.328Z,7.90
2018-01-26T10:24:40.938Z,7.50
2018-01-26T10:27:08.565Z,8.20
2018-01-26T10:29:36.218Z,7.70
2018-01-26T10:32:03.844Z,6.83
2018-01-26T10:34:31.726Z,7.10
2018-01-26T10:36:59.316Z,7.97
2018-01-26T10:39:26.926Z,7.50
2018-01-26T10:41:54.531Z,7.10
2018-01-26T10:44:22.146Z,7.63
2018-01-26T10:46:49.738Z,7.00
2018-01-26T10:49:17.342Z,7.80
2018-01-26T10:51:45.005Z,7.93
2018-01-26T10:54:12.601Z,8.50
2018-01-26T10:56:40.220Z,7.93
2018-01-26T10:59:07.827Z,8.00
2018-01-26T11:01:35.424Z,7.60
2018-01-26T11:04:03.325Z,7.87
2018-01-26T11:06:30.935Z,8.50
2018-01-26T11:08:58.664Z,6.80
2018-01-26T11:11:26.332Z,7.13
2018-01-26T11:13:53.965Z,7.23
2018-01-26T11:16:21.579Z,6.97
2018-01-26T11:18:49.184Z,7.87
2018-01-26T11:21:16.829Z,7.87
2018-01-26T11:23:44.444Z,7.90
2018-01-26T11:26:12.043Z,7.63
2018-01-26T11:28:39.672Z,6.50
2018-01-26T11:31:07.273Z,7.33
2018-01-26T11:33:35.092Z,7.10
2018-01-26T11:36:02.682Z,8.00
2018-01-26T11:38:30.279Z,7.20
2018-01-26T11:40:57.893Z,8.60
2018-01-26T11:43:25.490Z,8.73
2018-01-26T11:45:53.303Z,7.03
2018-01-26T11:48:20.906Z,7.57
2018-01-26T11:50:48.512Z,8.07
2018-01-26T11:53:16.133Z,7.47
2018-01-26T11:55:43.728Z,7.60
2018-01-26T11:58:11.707Z,7.97
2018-01-26T12:00:39.320Z,7.47
2018-01-26T12:03:06.945Z,8.10
2018-01-26T12:05:34.847Z,6.90
2018-01-26T12:08:02.597Z,8.60
2018-01-26T12:10:30.560Z,8.00
2018-01-26T12:12:58.172Z,8.63
2018-01-26T12:15:26.180Z,9.07
2018-01-26T12:17:53.805Z,8.10
2018-01-26T12:20:21.492Z,7.20
2018-01-26T12:22:49.152Z,8.20
2018-01-26T12:25:16.787Z,8.53
2018-01-26T12:27:44.434Z,8.20
2018-01-26T12:30:12.039Z,8.70
2018-01-26T12:32:39.740Z,9.70
2018-01-26T12:35:07.349Z,9.30
2018-01-26T12:37:34.968Z,9.70
2018-01-26T12:40:02.593Z,9.57
2018-01-26T12:42:30.228Z,11.03
2018-01-26T12:44:58.212Z,11.47
2018-01-26T12:47:25.843Z,11.17
2018-01-26T12:49:53.438Z,9.50
2018-01-26T12:52:21.059Z,9.40
2018-01-26T12:54:48.649Z,8.83
2018-01-26T12:57:16.298Z,7.90
2018-01-26T12:59:43.887Z,7.40
2018-01-26T13:02:11.848Z,9.20
2018-01-26T13:04:39.459Z,7.93
2018-01-26T13:07:07.047Z,9.13
2018-01-26T13:09:34.674Z,9.40
2018-01-26T13:12:02.296Z,8.77
2018-01-26T13:14:29.913Z,9.27
2018-01-26T13:16:57.516Z,6.53
2018-01-26T13:19:25.276Z,6.80
2018-01-26T13:21:52.873Z,6.60
2018-01-26T13:24:20.467Z,4.60
2018-01-26T13:26:48.093Z,5.33
2018-01-26T13:29:15.692Z,5.47
2018-01-26T13:31:43.332Z,5.57
2018-01-26T13:34:10.946Z,5.90
2018-01-26T13:36:38.611Z,6.47
2018-01-26T13:39:06.209Z,7.33
2018-01-26T13:41:33.803Z,6.50
2018-01-26T13:44:01.430Z,6.50
2018-01-26T13:46:29.023Z,5.43
2018-01-26T13:48:56.645Z,5.30
2018-01-26T13:51:24.246Z,4.87
2018-01-26T13:53:51.863Z,4.77
2018-01-26T13:56:19.462Z,5.00
2018-01-26T13:58:47.055Z,5.60
2018-01-26T14:01:14.691Z,5.47
2018-01-26T14:03:42.279Z,4.60
2018-01-26T14:06:09.896Z,4.43
2018-01-26T14:08:37.496Z,5.20
2018-01-26T14:11:05.132Z,5.53
2018-01-26T14:13:32.720Z,5.00
2018-01-26T14:16:00.349Z,4.17
2018-01-26T14:18:27.996Z,5.00
2018-01-26T14:20:55.611Z,4.40
2018-01-26T14:23:23.240Z,4.67
2018-01-26T14:25:50.840Z,4.87
2018-01-26T14:28:18.505Z,4.03
2018-01-26T14:30:46.101Z,4.83
2018-01-26T14:33:13.707Z,5.67
2018-01-26T14:35:41.479Z,4.77
2018-01-26T14:38:09.201Z,4.43
2018-01-26T14:40:36.814Z,6.00
2018-01-26T14:43:04.412Z,5.37
2018-01-26T14:45:31.545Z,5.23
2018-01-26T14:47:59.145Z,6.10
2018-01-26T14:50:26.754Z,5.80
2018-01-26T14:52:54.392Z,5.93
2018-01-26T14:55:21.996Z,6.83
2018-01-26T14:57:49.606Z,6.10
2018-01-26T15:00:17.198Z,6.20
2018-01-26T15:02:45.040Z,6.80
2018-01-26T15:05:12.645Z,6.93
2018-01-26T15:07:40.251Z,6.53
2018-01-26T15:10:07.873Z,7.27
2018-01-26T15:12:35.507Z,8.43
2018-01-26T15:15:03.133Z,9.30
2018-01-26T15:17:30.737Z,8.30
2018-01-26T15:19:58.562Z,7.60
2018-01-26T15:22:26.184Z,6.80
2018-01-26T15:24:53.837Z,6.10
2018-01-26T15:27:21.457Z,5.20
2018-01-26T15:29:49.063Z,5.43
2018-01-26T15:32:16.682Z,5.07
2018-01-26T15:34:44.267Z,4.67
2018-01-26T15:37:11.907Z,5.77
2018-01-26T15:39:39.522Z,5.30
2018-01-26T15:42:07.110Z,5.10
2018-01-26T15:44:34.732Z,4.70
2018-01-26T15:47:02.344Z,5.10
2018-01-26T15:49:29.962Z,5.33
2018-01-26T15:51:57.587Z,4.97
2018-01-26T15:54:25.227Z,6.80
2018-01-26T15:56:52.808Z,5.03
2018-01-26T15:59:20.440Z,7.17
2018-01-26T16:01:48.112Z,7.07
2018-01-26T16:04:15.747Z,6.10
2018-01-26T16:06:43.334Z,5.50
2018-01-26T16:09:11.077Z,6.10
2018-01-26T16:11:38.663Z,5.70
2018-01-26T16:14:06.268Z,5.40
2018-01-26T16:16:33.894Z,5.40
2018-01-26T16:19:01.527Z,6.23
2018-01-26T16:21:29.163Z,6.10
2018-01-26T16:23:56.756Z,6.17
2018-01-26T16:26:24.634Z,6.07
2018-01-26T16:28:52.239Z,6.20
2018-01-26T16:31:19.870Z,6.73
2018-01-26T16:33:47.488Z,8.37
2018-01-26T16:36:15.077Z,6.07
2018-01-26T16:38:42.741Z,6.83
2018-01-26T16:41:10.349Z,7.83
2018-01-26T16:43:38.259Z,6.30
2018-01-26T16:46:05.873Z,7.10
2018-01-26T16:48:33.470Z,7.70
2018-01-26T16:51:01.094Z,8.47
2018-01-26T16:53:28.730Z,7.57
2018-01-26T16:55:56.349Z,7.60
2018-01-26T16:58:23.958Z,6.13
2018-01-26T17:00:51.903Z,6.00
2018-01-26T17:03:19.500Z,7.10
2018-01-26T17:05:47.095Z,6.77
2018-01-26T17:08:14.723Z,6.60
2018-01-26T17:10:42.312Z,6.37
2018-01-26T17:13:09.924Z,8.20
2018-01-26T17:15:37.520Z,6.50
2018-01-26T17:18:05.423Z,6.97
2018-01-26T17:20:33.022Z,6.70
2018-01-26T17:23:00.627Z,7.43
2018-01-26T17:25:28.259Z,6.80
2018-01-26T17:27:55.877Z,7.07
2018-01-26T17:30:23.497Z,6.57
2018-01-26T17:32:51.111Z,6.60
2018-01-26T17:35:18.959Z,8.17
2018-01-26T17:37:46.554Z,7.73
2018-01-26T17:40:14.192Z,7.63
2018-01-26T17:42:41.803Z,7.43
2018-01-26T17:45:09.407Z,6.80
2018-01-26T17:47:37.024Z,6.50
2018-01-26T17:50:04.624Z,6.90
2018-01-26T17:52:32.503Z,5.83
2018-01-26T17:55:00.708Z,7.50
2018-01-26T17:57:28.312Z,6.10
2018-01-26T17:59:55.959Z,7.10
2018-01-26T18:02:23.572Z,6.60
2018-01-26T18:04:51.206Z,6.07
2018-01-26T18:07:18.795Z,6.67
2018-01-26T18:09:46.755Z,6.20
2018-01-26T18:12:14.354Z,6.67
2018-01-26T18:14:41.947Z,6.67
2018-01-26T18:17:09.575Z,6.33
2018-01-26T18:19:37.205Z,6.43
2018-01-26T18:22:04.838Z,7.20
2018-01-26T18:24:32.427Z,7.70
2018-01-26T18:27:00.105Z,7.33
2018-01-26T18:29:27.725Z,6.80
2018-01-26T18:31:55.322Z,7.30
2018-01-26T18:34:22.956Z,8.10
2018-01-26T18:36:50.573Z,6.53
2018-01-26T18:39:18.204Z,7.07
2018-01-26T18:41:45.811Z,6.93
2018-01-26T18:44:13.438Z,6.80
2018-01-26T18:46:41.055Z,7.20
2018-01-26T18:49:08.832Z,6.93
2018-01-26T18:51:36.446Z,7.77
2018-01-26T18:54:04.058Z,7.27
2018-01-26T18:56:31.704Z,8.00
2018-01-26T18:58:59.315Z,8.27
2018-01-26T19:01:26.944Z,8.37
2018-01-26T19:03:54.534Z,9.00
2018-01-26T19:06:22.129Z,7.60
2018-01-26T19:08:49.758Z,7.60
2018-01-26T19:11:17.378Z,8.43
2018-01-26T19:13:45.000Z,8.53
2018-01-26T19:16:12.602Z,8.60
2018-01-26T19:18:40.235Z,7.83
2018-01-26T19:21:07.861Z,9.03
2018-01-26T19:23:35.451Z,8.30
2018-01-26T19:26:03.072Z,8.00
2018-01-26T19:28:30.661Z,8.43
2018-01-26T19:30:58.280Z,8.03
2018-01-26T19:33:25.871Z,8.63
2018-01-26T19:35:53.599Z,9.80
2018-01-26T19:38:21.196Z,8.83
2018-01-26T19:40:48.799Z,10.90
2018-01-26T19:43:16.414Z,10.10
2018-01-26T19:45:44.017Z,10.53
2018-01-26T19:48:11.639Z,10.87
2018-01-26T19:50:39.235Z,8.53
2018-01-26T19:53:07.120Z,10.90
2018-01-26T19:55:34.725Z,9.60
2018-01-26T19:58:03.099Z,11.20
2018-01-26T20:00:30.726Z,10.83
2018-01-26T20:03:09.958Z,9.70
2018-01-26T20:09:09.493Z,10.07
2018-01-26T20:11:37.079Z,12.30
2018-01-26T20:14:05.116Z,10.77
2018-01-26T20:16:32.707Z,10.70
2018-01-26T20:19:00.301Z,11.40
2018-01-26T20:21:27.932Z,11.30
2018-01-26T20:23:55.534Z,10.03
2018-01-26T20:26:23.156Z,9.67
2018-01-26T20:28:50.755Z,11.87
2018-01-26T20:31:18.387Z,11.00
2018-01-26T20:33:46.043Z,11.17
2018-01-26T20:36:13.650Z,11.00
2018-01-26T20:38:41.271Z,9.93
2018-01-26T20:41:08.884Z,10.53
2018-01-26T20:43:36.501Z,9.80
2018-01-26T20:46:04.095Z,9.90
2018-01-26T20:48:31.735Z,8.00
2018-01-26T20:50:59.324Z,9.77
2018-01-26T20:53:27.093Z,7.60
2018-01-26T20:55:54.695Z,9.43
2018-01-26T20:58:22.304Z,7.53
2018-01-26T21:00:50.256Z,7.50
2018-01-26T21:03:17.856Z,8.40
2018-01-26T21:05:45.439Z,8.27
2018-01-26T21:08:13.059Z,7.67
2018-01-26T21:10:40.658Z,8.60
2018-01-26T21:13:08.264Z,8.10
2018-01-26T21:15:35.871Z,8.10
2018-01-26T21:18:03.501Z,7.73
2018-01-26T21:20:31.092Z,8.10
2018-01-26T21:22:58.724Z,8.57
2018-01-26T21:25:26.307Z,8.73
2018-01-26T21:27:54.254Z,7.90
2018-01-26T21:30:21.850Z,8.50
2018-01-26T21:32:49.440Z,8.80
2018-01-26T21:35:17.081Z,9.00
2018-01-26T21:37:44.666Z,8.57
2018-01-26T21:40:12.284Z,8.93
2018-01-26T21:42:39.879Z,10.10
2018-01-26T21:45:07.680Z,9.53
2018-01-26T21:47:35.267Z,8.60
2018-01-26T21:50:02.860Z,9.90
2018-01-26T21:52:30.466Z,9.60
2018-01-26T21:54:58.069Z,10.53
2018-01-26T21:57:25.692Z,10.17
2018-01-26T21:59:53.289Z,8.60
2018-01-26T22:02:21.231Z,10.53
2018-01-26T22:04:54.400Z,10.30
2018-01-26T22:07:27.612Z,11.10
2018-01-26T22:09:55.215Z,11.00
2018-01-26T22:12:22.812Z,11.53
2018-01-26T22:14:50.432Z,10.23
2018-01-26T22:17:18.090Z,11.70
2018-01-26T22:19:45.708Z,11.37
2018-01-26T22:22:13.306Z,11.07
2018-01-26T22:24:41.337Z,11.70
2018-01-26T22:27:08.930Z,12.30
2018-01-26T22:29:36.532Z,11.70
2018-01-26T22:32:04.188Z,11.73
2018-01-26T22:34:31.827Z,13.17
2018-01-26T22:36:59.482Z,12.97
2018-01-26T22:39:27.117Z,13.13
2018-01-26T22:41:54.731Z,15.80
2018-01-26T22:44:22.364Z,17.17
2018-01-26T22:46:50.383Z,14.20
2018-01-26T22:49:17.989Z,15.10
2018-01-26T22:51:45.583Z,12.30
2018-01-26T22:54:13.224Z,14.43
2018-01-26T22:56:40.815Z,13.63
2018-01-26T22:59:08.435Z,15.87
2018-01-26T23:01:36.024Z,15.37
2018-01-26T23:04:03.748Z,16.43
2018-01-26T23:06:31.343Z,14.83
2018-01-26T23:08:58.936Z,19.30
2018-01-26T23:11:26.559Z,14.47
2018-01-26T23:13:54.152Z,16.20
2018-01-26T23:16:21.767Z,16.90
2018-01-26T23:18:49.376Z,16.10
2018-01-26T23:21:17.330Z,17.47
2018-01-26T23:23:44.945Z,16.57
2018-01-26T23:26:12.577Z,16.60
2018-01-26T23:28:40.201Z,16.07
2018-01-26T23:31:07.849Z,17.57
2018-01-26T23:33:35.462Z,18.93
2018-01-26T23:36:03.067Z,16.20
2018-01-26T23:38:30.894Z,16.20
2018-01-26T23:40:58.490Z,17.43
2018-01-26T23:43:26.087Z,18.27
2018-01-26T23:45:53.741Z,16.63
2018-01-26T23:48:21.335Z,18.43
2018-01-26T23:50:48.967Z,17.97
2018-01-26T23:53:16.557Z,19.17
2018-01-26T23:55:44.584Z,17.70
2018-01-26T23:58:12.325Z,17.27
